Terminal Aerodrome Forecast
Issued by NWS

Home | Current Version | Previous Version | Text Only | Print | Product List | Glossary On
Versions: 1 2 3 4 5 6 7 8 9 10 11 12 13 14 15 16 17
000
FTUS42 KTAE 270533
TAFECP
TAF
KECP 270533Z 2706/2806 31003KT 6SM BR BKN200
     FM271300 36004KT P6SM OVC100
     FM271800 VRB04KT P6SM VCTS BKN050CB OVC100=

USA.gov is the U.S. government's official web portal to all federal, state and local government web resources and services.